Time;durP1;ratioP1;P1;durP2;ratioP2;P2;SDS_P1;SDS_P2;PMS_P1;PMS_P2;Temp;Humidity;BMP_temperature;BMP_pressure;BME280_temperature;BME280_humidity;BME280_pressure;Samples;Min_cycle;Max_cycle;Signal;HPM_P1;HPM_P2
2022/11/20 00:00:14;;;;;;;8.80;7.90;;;;;;;;;;5042004;28;20042;-79
2022/11/20 00:02:40;;;;;;;8.45;7.32;;;;;;;;;;5074515;28;20378;-78
2022/11/20 00:05:06;;;;;;;9.68;8.68;;;;;;;;;;5041308;28;20065;-80
2022/11/20 00:07:32;;;;;;;9.00;8.10;;;;;;;;;;5041560;28;20035;-80
2022/11/20 00:09:57;;;;;;;8.80;7.20;;;;;;;;;;5058081;28;20067;-81
2022/11/20 00:12:22;;;;;;;8.38;7.30;;;;;;;;;;5058086;28;20036;-80
2022/11/20 00:14:48;;;;;;;8.15;7.28;;;;;;;;;;5074343;28;20059;-80
2022/11/20 00:17:13;;;;;;;9.00;7.68;;;;;;;;;;5040924;28;20409;-79
2022/11/20 00:19:39;;;;;;;8.27;7.03;;;;;;;;;;5040839;28;20405;-80
2022/11/20 00:22:04;;;;;;;7.95;7.03;;;;;;;;;;5041336;28;20093;-80
2022/11/20 00:24:30;;;;;;;8.52;7.53;;;;;;;;;;5057813;28;20386;-80
2022/11/20 00:26:55;;;;;;;7.60;6.90;;;;;;;;;;5040321;28;20040;-81
2022/11/20 00:29:21;;;;;;;9.35;8.13;;;;;;;;;;5057369;28;20071;-79
2022/11/20 00:31:47;;;;;;;9.65;8.65;;;;;;;;;;5045368;28;20028;-80
2022/11/20 00:34:12;;;;;;;8.73;7.68;;;;;;;;;;5057327;28;20149;-80
2022/11/20 00:36:38;;;;;;;8.30;7.45;;;;;;;;;;5041100;28;20035;-79
2022/11/20 00:39:03;;;;;;;9.02;7.75;;;;;;;;;;5053091;28;20170;-81
2022/11/20 00:41:29;;;;;;;7.82;6.90;;;;;;;;;;5021145;28;20032;-81
2022/11/20 00:43:55;;;;;;;7.45;6.75;;;;;;;;;;5053732;28;20035;-80
2022/11/20 00:46:22;;;;;;;8.27;7.47;;;;;;;;;;5053804;28;20024;-82
2022/11/20 00:48:47;;;;;;;8.40;7.38;;;;;;;;;;5036715;28;20132;-79
2022/11/20 00:51:22;;;;;;;8.30;7.10;;;;;;;;;;5036329;28;20115;-79
2022/11/20 00:53:51;;;;;;;7.72;6.93;;;;;;;;;;5038114;28;20044;-81
2022/11/20 00:56:18;;;;;;;8.40;6.75;;;;;;;;;;5020394;28;20025;-81
2022/11/20 00:58:45;;;;;;;8.32;7.35;;;;;;;;;;5036792;28;20025;-79
2022/11/20 01:01:18;;;;;;;8.57;7.55;;;;;;;;;;5036881;28;20404;-81
2022/11/20 01:03:45;;;;;;;7.90;7.10;;;;;;;;;;5037607;28;20032;-80
2022/11/20 01:06:17;;;;;;;7.65;6.85;;;;;;;;;;5037212;28;20029;-81
2022/11/20 01:08:44;;;;;;;8.48;7.40;;;;;;;;;;5053893;28;20135;-81
2022/11/20 01:11:18;;;;;;;8.27;7.47;;;;;;;;;;5020412;28;20032;-80
2022/11/20 01:13:44;;;;;;;7.78;7.00;;;;;;;;;;5037227;28;20113;-80
2022/11/20 01:16:23;;;;;;;9.32;7.45;;;;;;;;;;5037369;28;20051;-81
2022/11/20 01:18:51;;;;;;;8.73;7.38;;;;;;;;;;5038352;28;20105;-81
2022/11/20 01:21:22;;;;;;;7.75;6.95;;;;;;;;;;5020782;28;20029;-81
2022/11/20 01:23:48;;;;;;;7.40;6.60;;;;;;;;;;5037297;28;20888;-81
2022/11/20 01:26:16;;;;;;;8.00;7.20;;;;;;;;;;5053277;28;20040;-81
2022/11/20 01:28:42;;;;;;;7.57;6.78;;;;;;;;;;5036946;28;20029;-80
2022/11/20 01:31:35;;;;;;;6.72;5.60;;;;;;;;;;5040005;28;20043;-80
2022/11/20 01:34:02;;;;;;;8.25;7.45;;;;;;;;;;5071331;28;20032;-82
2022/11/20 01:36:28;;;;;;;8.77;7.88;;;;;;;;;;5057451;28;20256;-77
2022/11/20 01:38:55;;;;;;;7.93;7.13;;;;;;;;;;5036776;28;20024;-80
2022/11/20 01:44:06;;;;;;;7.95;6.57;;;;;;;;;;5076745;28;20392;-80
2022/11/20 01:46:33;;;;;;;7.90;7.10;;;;;;;;;;5039989;28;20250;-80
2022/11/20 01:49:11;;;;;;;8.38;7.53;;;;;;;;;;5056464;28;20036;-79
2022/11/20 01:51:51;;;;;;;8.18;6.97;;;;;;;;;;5061337;28;20094;-79
2022/11/20 01:54:22;;;;;;;7.70;6.90;;;;;;;;;;5045114;28;20039;-79
2022/11/20 01:56:47;;;;;;;7.78;6.50;;;;;;;;;;5060540;28;20047;-80
2022/11/20 01:59:15;;;;;;;7.38;6.50;;;;;;;;;;5060301;28;20493;-79
2022/11/20 02:01:40;;;;;;;8.07;6.43;;;;;;;;;;5044151;28;20040;-81
2022/11/20 02:04:07;;;;;;;8.43;6.72;;;;;;;;;;5060407;28;20024;-81
2022/11/20 02:06:39;;;;;;;8.30;6.85;;;;;;;;;;5043742;28;20443;-80
2022/11/20 02:09:05;;;;;;;8.68;7.75;;;;;;;;;;5060405;28;20080;-79
2022/11/20 02:11:31;;;;;;;7.43;6.65;;;;;;;;;;5060625;28;20119;-81
2022/11/20 02:13:57;;;;;;;7.65;6.55;;;;;;;;;;5043180;28;20111;-80
2022/11/20 02:16:28;;;;;;;7.97;6.70;;;;;;;;;;5043770;28;20066;-77
2022/11/20 02:18:55;;;;;;;7.95;6.70;;;;;;;;;;5043776;28;20468;-81
2022/11/20 02:21:35;;;;;;;7.22;6.20;;;;;;;;;;5043486;28;20070;-77
2022/11/20 02:24:07;;;;;;;7.15;6.45;;;;;;;;;;5061190;28;20066;-80
2022/11/20 02:26:36;;;;;;;7.30;6.47;;;;;;;;;;5059284;28;20052;-79
2022/11/20 02:29:03;;;;;;;8.10;6.15;;;;;;;;;;5043622;28;20039;-78
2022/11/20 02:31:33;;;;;;;8.07;6.65;;;;;;;;;;5067028;28;20040;-80
2022/11/20 02:33:58;;;;;;;8.15;5.60;;;;;;;;;;5057304;28;20379;-76
2022/11/20 02:36:27;;;;;;;7.25;6.20;;;;;;;;;;5023629;28;20047;-77
2022/11/20 02:38:52;;;;;;;7.18;6.38;;;;;;;;;;5059685;28;20096;-80
2022/11/20 02:41:18;;;;;;;6.82;6.03;;;;;;;;;;5059358;28;20485;-79
2022/11/20 02:43:43;;;;;;;6.80;6.10;;;;;;;;;;5055804;28;20124;-78
2022/11/20 02:46:09;;;;;;;7.57;6.72;;;;;;;;;;5039242;28;20528;-78
2022/11/20 02:48:34;;;;;;;7.15;6.35;;;;;;;;;;5039708;28;20039;-81
2022/11/20 02:51:00;;;;;;;8.70;7.43;;;;;;;;;;5022854;28;20044;-79
2022/11/20 02:53:26;;;;;;;7.18;6.22;;;;;;;;;;5039835;28;20058;-80
2022/11/20 02:55:53;;;;;;;7.95;6.15;;;;;;;;;;5039293;28;20048;-79
2022/11/20 02:58:19;;;;;;;7.38;6.68;;;;;;;;;;5039353;28;20055;-80
2022/11/20 03:00:45;;;;;;;7.90;7.10;;;;;;;;;;5038832;28;20544;-78
2022/11/20 03:03:11;;;;;;;7.78;6.45;;;;;;;;;;5022297;28;20390;-77
2022/11/20 03:05:45;;;;;;;7.40;6.35;;;;;;;;;;5039254;28;20111;-77
2022/11/20 03:08:10;;;;;;;7.60;6.88;;;;;;;;;;5072567;28;20489;-77
2022/11/20 03:10:37;;;;;;;7.13;6.43;;;;;;;;;;5039596;28;20033;-77
2022/11/20 03:13:02;;;;;;;7.82;6.95;;;;;;;;;;5039038;28;20040;-80
2022/11/20 03:15:29;;;;;;;7.25;6.35;;;;;;;;;;5038599;28;20040;-78
2022/11/20 03:17:55;;;;;;;6.85;5.70;;;;;;;;;;5055940;28;20517;-79
2022/11/20 03:20:22;;;;;;;6.78;6.07;;;;;;;;;;5039173;28;20067;-79
2022/11/20 03:22:47;;;;;;;7.38;5.78;;;;;;;;;;5039362;28;20040;-77
2022/11/20 03:25:14;;;;;;;7.05;6.10;;;;;;;;;;5039168;28;20044;-79
2022/11/20 03:27:40;;;;;;;8.68;7.25;;;;;;;;;;5055045;28;20111;-78
2022/11/20 03:30:06;;;;;;;7.60;6.47;;;;;;;;;;5041017;28;20135;-78
2022/11/20 03:32:31;;;;;;;7.72;6.45;;;;;;;;;;5058811;28;20127;-80
2022/11/20 03:34:57;;;;;;;8.23;7.10;;;;;;;;;;5058732;28;20028;-80
2022/11/20 03:37:22;;;;;;;7.10;5.95;;;;;;;;;;5038162;28;20108;-80
2022/11/20 03:39:48;;;;;;;7.95;6.80;;;;;;;;;;5055664;28;20086;-78
2022/11/20 03:44:58;;;;;;;7.65;6.38;;;;;;;;;;5085860;28;20036;-76
2022/11/20 03:47:24;;;;;;;7.32;5.97;;;;;;;;;;5041941;28;20082;-78
2022/11/20 03:49:49;;;;;;;8.05;6.00;;;;;;;;;;5041972;28;20032;-77
2022/11/20 03:52:17;;;;;;;7.43;6.20;;;;;;;;;;5041741;28;20036;-77
2022/11/20 03:54:43;;;;;;;7.40;6.55;;;;;;;;;;5041833;28;20032;-79
2022/11/20 03:57:09;;;;;;;7.30;6.38;;;;;;;;;;5040996;28;20134;-78
2022/11/20 03:59:34;;;;;;;6.38;5.53;;;;;;;;;;5041829;28;20069;-80
2022/11/20 04:01:59;;;;;;;7.70;6.90;;;;;;;;;;5041701;28;20456;-80
2022/11/20 04:04:26;;;;;;;7.28;6.55;;;;;;;;;;5041443;28;20066;-78
2022/11/20 04:06:52;;;;;;;7.82;6.65;;;;;;;;;;5041626;28;20028;-78
2022/11/20 04:09:19;;;;;;;6.95;6.25;;;;;;;;;;5041674;28;20053;-80
2022/11/20 04:11:44;;;;;;;8.43;7.15;;;;;;;;;;5056970;28;20044;-77
2022/11/20 04:14:15;;;;;;;6.57;5.90;;;;;;;;;;5057833;28;20543;-79
2022/11/20 04:16:42;;;;;;;6.43;5.82;;;;;;;;;;5058497;28;20383;-79
2022/11/20 04:19:13;;;;;;;7.03;6.32;;;;;;;;;;5057861;28;20040;-80
2022/11/20 04:21:39;;;;;;;6.85;6.15;;;;;;;;;;5041679;28;20126;-77
2022/11/20 04:24:05;;;;;;;7.75;6.03;;;;;;;;;;5041208;28;20123;-80
2022/11/20 04:26:30;;;;;;;7.15;6.30;;;;;;;;;;5073376;28;20052;-80
2022/11/20 04:28:56;;;;;;;7.05;6.35;;;;;;;;;;5058070;28;20121;-80
2022/11/20 04:31:23;;;;;;;7.45;6.40;;;;;;;;;;5057195;28;20046;-78
2022/11/20 04:33:49;;;;;;;6.30;5.28;;;;;;;;;;5073917;28;20412;-77
2022/11/20 04:36:16;;;;;;;6.20;5.57;;;;;;;;;;5074585;28;20070;-78
2022/11/20 04:38:42;;;;;;;6.85;6.10;;;;;;;;;;5074294;28;20040;-79
2022/11/20 04:41:12;;;;;;;6.38;5.78;;;;;;;;;;5057198;28;20400;-80
2022/11/20 04:43:37;;;;;;;6.28;5.63;;;;;;;;;;5053424;28;20089;-80
2022/11/20 04:46:03;;;;;;;6.07;5.45;;;;;;;;;;5037183;28;20119;-80
2022/11/20 04:48:29;;;;;;;7.18;6.05;;;;;;;;;;5037336;28;20032;-80
2022/11/20 04:50:54;;;;;;;6.18;5.57;;;;;;;;;;5037557;28;20040;-81
2022/11/20 04:53:20;;;;;;;6.43;5.53;;;;;;;;;;5053518;28;20028;-80
2022/11/20 04:55:45;;;;;;;6.78;5.93;;;;;;;;;;5037374;28;20392;-78
2022/11/20 04:58:11;;;;;;;6.72;5.90;;;;;;;;;;5037665;28;20040;-79
2022/11/20 05:00:36;;;;;;;6.07;5.47;;;;;;;;;;5037037;28;20040;-79
2022/11/20 05:03:02;;;;;;;7.22;5.57;;;;;;;;;;5037071;28;20040;-80
2022/11/20 05:05:27;;;;;;;6.25;5.60;;;;;;;;;;5037086;28;20490;-80
2022/11/20 05:07:57;;;;;;;6.43;5.72;;;;;;;;;;5037212;28;20111;-80
2022/11/20 05:10:23;;;;;;;6.70;5.93;;;;;;;;;;5051007;28;20032;-81
2022/11/20 05:12:49;;;;;;;6.30;5.40;;;;;;;;;;5053608;28;20048;-80
2022/11/20 05:15:15;;;;;;;6.70;6.00;;;;;;;;;;5053544;28;20029;-80
2022/11/20 05:17:40;;;;;;;6.22;5.50;;;;;;;;;;5053663;28;20029;-80
2022/11/20 05:20:07;;;;;;;6.82;5.28;;;;;;;;;;5053608;28;20040;-80
2022/11/20 05:22:33;;;;;;;6.80;5.63;;;;;;;;;;5053290;28;20048;-80
2022/11/20 05:25:00;;;;;;;7.10;6.38;;;;;;;;;;5055221;28;20108;-79
2022/11/20 05:27:26;;;;;;;6.18;5.35;;;;;;;;;;5057189;28;20050;-79
2022/11/20 05:29:51;;;;;;;6.45;5.75;;;;;;;;;;5058088;28;20032;-80
2022/11/20 05:32:20;;;;;;;6.30;5.13;;;;;;;;;;5045344;28;20032;-79
2022/11/20 05:34:45;;;;;;;6.78;5.70;;;;;;;;;;5044360;28;20024;-78
2022/11/20 05:37:11;;;;;;;6.68;4.82;;;;;;;;;;5044175;28;20051;-78
2022/11/20 05:39:36;;;;;;;5.65;4.75;;;;;;;;;;5077840;28;20032;-80
2022/11/20 05:44:45;;;;;;;6.30;4.70;;;;;;;;;;5079887;28;20032;-80
2022/11/20 05:47:12;;;;;;;8.27;4.97;;;;;;;;;;5077196;28;20063;-79
2022/11/20 05:49:38;;;;;;;5.97;5.38;;;;;;;;;;5043821;28;20032;-80
2022/11/20 05:52:04;;;;;;;5.43;4.30;;;;;;;;;;5060531;28;20041;-80
2022/11/20 05:54:29;;;;;;;5.35;4.80;;;;;;;;;;5043884;28;20055;-80
2022/11/20 05:56:54;;;;;;;6.05;5.03;;;;;;;;;;5043446;28;20070;-80
2022/11/20 05:59:21;;;;;;;5.13;4.47;;;;;;;;;;5060565;28;20044;-80
2022/11/20 06:01:46;;;;;;;5.20;4.68;;;;;;;;;;5043822;28;20040;-81
2022/11/20 06:04:12;;;;;;;5.40;4.43;;;;;;;;;;5043961;28;20055;-81
2022/11/20 06:06:38;;;;;;;6.15;5.05;;;;;;;;;;5043367;28;20084;-81
2022/11/20 06:09:04;;;;;;;6.43;5.70;;;;;;;;;;5043827;28;20032;-81
2022/11/20 06:11:29;;;;;;;5.38;4.80;;;;;;;;;;5043385;28;20153;-80
2022/11/20 06:13:54;;;;;;;4.93;4.07;;;;;;;;;;5043556;28;20059;-79
2022/11/20 06:16:21;;;;;;;5.90;4.65;;;;;;;;;;5043870;28;20040;-80
2022/11/20 06:18:47;;;;;;;5.18;4.28;;;;;;;;;;5044152;28;20121;-81
2022/11/20 06:21:17;;;;;;;5.05;4.28;;;;;;;;;;5059742;28;20036;-81
2022/11/20 06:23:42;;;;;;;5.53;4.53;;;;;;;;;;5060443;28;20237;-81
2022/11/20 06:26:13;;;;;;;4.95;4.45;;;;;;;;;;5042637;28;20043;-80
2022/11/20 06:28:38;;;;;;;5.10;4.47;;;;;;;;;;5060346;28;20031;-80
2022/11/20 06:31:04;;;;;;;5.57;4.78;;;;;;;;;;5065892;28;20417;-81
2022/11/20 06:33:30;;;;;;;5.05;4.55;;;;;;;;;;5040195;28;20085;-81
2022/11/20 06:35:59;;;;;;;4.90;4.45;;;;;;;;;;5039502;28;20473;-81
2022/11/20 06:38:26;;;;;;;5.55;4.38;;;;;;;;;;5049229;28;20405;-81
2022/11/20 06:40:51;;;;;;;5.40;4.70;;;;;;;;;;5055949;28;20054;-81
2022/11/20 06:43:17;;;;;;;5.15;4.25;;;;;;;;;;5073422;28;20044;-81
2022/11/20 06:45:42;;;;;;;4.85;3.67;;;;;;;;;;5042576;28;20040;-76
2022/11/20 06:48:08;;;;;;;5.55;4.40;;;;;;;;;;5043111;28;20413;-80
2022/11/20 06:50:33;;;;;;;5.45;4.47;;;;;;;;;;5059020;28;20040;-80
2022/11/20 06:53:02;;;;;;;4.50;3.88;;;;;;;;;;5076534;28;20115;-79
2022/11/20 06:55:28;;;;;;;5.55;4.47;;;;;;;;;;5059341;28;20508;-79
2022/11/20 06:57:53;;;;;;;5.50;4.82;;;;;;;;;;5042927;28;20040;-79
2022/11/20 07:00:19;;;;;;;4.60;4.10;;;;;;;;;;5043046;28;20032;-79
2022/11/20 07:02:45;;;;;;;5.18;4.68;;;;;;;;;;5042851;28;20439;-80
2022/11/20 07:05:14;;;;;;;4.45;3.88;;;;;;;;;;5042020;28;20089;-78
2022/11/20 07:07:39;;;;;;;5.32;4.70;;;;;;;;;;5042703;28;20119;-79
2022/11/20 07:10:05;;;;;;;5.32;4.30;;;;;;;;;;5058752;28;20123;-79
2022/11/20 07:12:30;;;;;;;5.00;4.10;;;;;;;;;;5042552;28;20072;-80
2022/11/20 07:14:56;;;;;;;5.50;4.95;;;;;;;;;;5075449;28;20177;-80
2022/11/20 07:17:22;;;;;;;5.35;4.72;;;;;;;;;;5042432;28;20125;-79
2022/11/20 07:19:47;;;;;;;4.68;4.10;;;;;;;;;;5041929;28;20074;-80
2022/11/20 07:22:13;;;;;;;4.72;3.95;;;;;;;;;;5058879;28;20559;-79
2022/11/20 07:24:38;;;;;;;5.38;4.35;;;;;;;;;;5058757;28;20032;-79
2022/11/20 07:27:04;;;;;;;5.55;4.47;;;;;;;;;;5040754;28;20713;-80
2022/11/20 07:29:30;;;;;;;5.22;4.45;;;;;;;;;;5089709;28;20036;-78
2022/11/20 07:31:56;;;;;;;6.03;4.38;;;;;;;;;;5058455;28;20046;-81
2022/11/20 07:34:23;;;;;;;5.35;4.45;;;;;;;;;;5042448;28;20028;-79
2022/11/20 07:36:49;;;;;;;5.25;4.38;;;;;;;;;;5075104;28;20032;-79
2022/11/20 07:39:14;;;;;;;5.10;4.57;;;;;;;;;;5074963;28;20421;-79
2022/11/20 07:41:40;;;;;;;5.45;4.53;;;;;;;;;;5074875;28;20417;-78
2022/11/20 07:44:07;;;;;;;5.53;4.70;;;;;;;;;;5091611;28;20405;-78
2022/11/20 07:46:32;;;;;;;4.93;4.43;;;;;;;;;;5041732;28;20028;-80
2022/11/20 07:48:58;;;;;;;5.00;3.65;;;;;;;;;;5041001;28;20113;-80
2022/11/20 07:51:23;;;;;;;4.93;4.43;;;;;;;;;;5042092;28;20417;-79
2022/11/20 07:53:52;;;;;;;4.90;4.10;;;;;;;;;;5041620;28;20063;-80
2022/11/20 07:56:17;;;;;;;8.57;5.20;;;;;;;;;;5058170;28;20020;-79
2022/11/20 07:58:44;;;;;;;10.25;5.93;;;;;;;;;;5041626;28;20043;-81
2022/11/20 08:01:10;;;;;;;9.02;5.65;;;;;;;;;;5058590;28;20497;-79
2022/11/20 08:03:37;;;;;;;7.93;6.13;;;;;;;;;;5074536;28;20073;-81
2022/11/20 08:06:07;;;;;;;12.27;6.97;;;;;;;;;;5043000;28;20039;-80
2022/11/20 08:08:33;;;;;;;14.93;8.07;;;;;;;;;;5074389;28;20066;-78
2022/11/20 08:16:29;;;;;;;17.17;8.63;;;;;;;;;;5062894;28;20074;-81
2022/11/20 08:18:55;;;;;;;19.02;7.88;;;;;;;;;;5041430;28;20105;-79
2022/11/20 08:21:22;;;;;;;16.70;8.18;;;;;;;;;;5057780;28;20599;-81
2022/11/20 08:23:48;;;;;;;14.75;8.82;;;;;;;;;;5057596;28;20040;-80
2022/11/20 08:26:13;;;;;;;14.10;7.53;;;;;;;;;;5057077;28;20032;-79
2022/11/20 08:28:40;;;;;;;13.35;7.75;;;;;;;;;;5040868;28;20040;-79
2022/11/20 08:31:06;;;;;;;14.88;7.47;;;;;;;;;;5056523;28;20036;-80
2022/11/20 08:33:32;;;;;;;17.88;7.47;;;;;;;;;;5074197;28;20114;-81
2022/11/20 08:36:04;;;;;;;15.85;8.85;;;;;;;;;;5074616;28;20439;-81
2022/11/20 08:38:31;;;;;;;;;;;;;;;;;;5058221;28;20040;-81
2022/11/20 08:43:45;;;;;;;15.85;7.68;;;;;;;;;;5076470;28;20031;-79
2022/11/20 08:46:10;;;;;;;12.90;7.30;;;;;;;;;;5056744;28;20036;-78
2022/11/20 08:48:39;;;;;;;11.20;7.40;;;;;;;;;;5057373;28;20123;-79
2022/11/20 08:51:06;;;;;;;10.65;7.13;;;;;;;;;;5041363;28;20035;-79
2022/11/20 08:53:33;;;;;;;10.98;7.05;;;;;;;;;;5040657;28;20527;-79
2022/11/20 08:55:59;;;;;;;12.15;6.28;;;;;;;;;;5073732;28;20043;-79
2022/11/20 08:58:25;;;;;;;9.02;6.22;;;;;;;;;;5040377;28;20040;-79
2022/11/20 09:00:51;;;;;;;10.07;6.50;;;;;;;;;;5039685;28;20028;-79
2022/11/20 09:03:16;;;;;;;12.75;8.25;;;;;;;;;;5040806;28;20073;-79
2022/11/20 09:05:42;;;;;;;18.55;9.95;;;;;;;;;;5073862;28;20052;-79
2022/11/20 09:08:08;;;;;;;15.68;10.35;;;;;;;;;;5040600;28;20024;-80
2022/11/20 09:10:33;;;;;;;15.27;11.43;;;;;;;;;;5039766;28;20511;-79
2022/11/20 09:12:59;;;;;;;18.77;10.90;;;;;;;;;;5056669;28;20036;-79
2022/11/20 09:15:24;;;;;;;19.08;11.90;;;;;;;;;;5039165;28;20036;-80
2022/11/20 09:17:57;;;;;;;17.90;11.15;;;;;;;;;;5056558;28;20837;-79
2022/11/20 09:20:23;;;;;;;15.52;9.85;;;;;;;;;;5057912;28;20631;-79
2022/11/20 09:22:48;;;;;;;15.95;11.80;;;;;;;;;;5056415;28;20040;-79
2022/11/20 09:25:14;;;;;;;17.90;11.85;;;;;;;;;;5073292;28;20036;-80
2022/11/20 09:27:41;;;;;;;15.63;10.23;;;;;;;;;;5056645;28;20029;-79
2022/11/20 09:30:07;;;;;;;14.32;9.93;;;;;;;;;;5040413;28;20036;-79
2022/11/20 09:32:32;;;;;;;13.18;10.00;;;;;;;;;;5056267;28;20036;-79
2022/11/20 09:34:57;;;;;;;13.35;9.63;;;;;;;;;;5090110;28;20048;-79
2022/11/20 09:37:23;;;;;;;13.02;9.38;;;;;;;;;;5056601;28;20451;-79
2022/11/20 09:39:49;;;;;;;13.05;10.02;;;;;;;;;;5089979;28;20065;-80
2022/11/20 09:42:19;;;;;;;13.55;8.73;;;;;;;;;;5090099;28;20382;-79
2022/11/20 09:44:57;;;;;;;12.85;8.82;;;;;;;;;;5089636;28;20048;-79
2022/11/20 09:47:54;;;;;;;12.15;9.32;;;;;;;;;;5057779;28;20615;-79
2022/11/20 09:50:23;;;;;;;12.30;8.23;;;;;;;;;;5073464;28;20044;-81
2022/11/20 09:53:13;;;;;;;11.60;9.15;;;;;;;;;;5090512;28;20036;-79
2022/11/20 09:55:39;;;;;;;10.50;8.70;;;;;;;;;;5073058;28;20047;-81
2022/11/20 09:58:25;;;;;;;12.63;9.38;;;;;;;;;;5056127;28;20048;-80
2022/11/20 10:00:50;;;;;;;12.70;9.15;;;;;;;;;;5074822;28;20105;-81
2022/11/20 10:03:32;;;;;;;10.48;8.40;;;;;;;;;;5072782;28;20505;-81
2022/11/20 10:05:58;;;;;;;11.70;8.43;;;;;;;;;;5057440;28;20485;-81
2022/11/20 10:08:29;;;;;;;10.45;8.05;;;;;;;;;;5056616;28;20092;-81
2022/11/20 10:11:05;;;;;;;10.75;8.38;;;;;;;;;;5041398;28;20040;-80
2022/11/20 10:13:45;;;;;;;11.02;8.38;;;;;;;;;;5076860;28;20036;-81
2022/11/20 10:16:17;;;;;;;10.30;7.93;;;;;;;;;;5060944;28;20028;-80
2022/11/20 10:19:04;;;;;;;11.02;8.10;;;;;;;;;;5093483;28;20093;-81
2022/11/20 10:21:58;;;;;;;11.60;8.18;;;;;;;;;;5076614;28;20044;-78
2022/11/20 10:24:48;;;;;;;9.45;7.65;;;;;;;;;;5076470;28;20115;-79
2022/11/20 10:27:22;;;;;;;11.30;7.60;;;;;;;;;;5075960;28;20052;-78
2022/11/20 10:29:59;;;;;;;9.18;7.50;;;;;;;;;;5093040;28;20443;-78
2022/11/20 10:32:28;;;;;;;11.30;7.70;;;;;;;;;;5077886;28;20549;-78
2022/11/20 10:35:02;;;;;;;8.90;7.32;;;;;;;;;;5059980;28;20051;-79
2022/11/20 10:37:28;;;;;;;24.92;21.15;;;;;;;;;;5093329;28;20032;-79
2022/11/20 10:40:17;;;;;;;21.60;17.38;;;;;;;;;;5093086;28;20032;-79
2022/11/20 10:42:51;;;;;;;22.42;16.08;;;;;;;;;;5093272;28;20035;-79
2022/11/20 10:45:25;;;;;;;21.25;15.55;;;;;;;;;;5071273;28;20032;-80
2022/11/20 10:48:15;;;;;;;21.95;14.65;;;;;;;;;;5089566;28;20616;-80
2022/11/20 10:51:02;;;;;;;20.42;14.55;;;;;;;;;;5059263;28;20086;-80
2022/11/20 10:53:46;;;;;;;15.48;13.35;;;;;;;;;;5058371;28;20032;-79
2022/11/20 10:56:35;;;;;;;18.38;14.60;;;;;;;;;;5072222;28;20036;-79
2022/11/20 10:59:38;;;;;;;18.08;14.07;;;;;;;;;;5052829;28;20444;-80
2022/11/20 11:02:21;;;;;;;23.25;14.10;;;;;;;;;;5072679;28;20048;-80
2022/11/20 11:04:50;;;;;;;;;;;;;;;;;;5056248;28;20036;-79
2022/11/20 11:07:30;;;;;;;17.33;13.48;;;;;;;;;;5072536;28;19913;-79
2022/11/20 11:09:56;;;;;;;18.50;13.63;;;;;;;;;;5055209;28;20032;-77
2022/11/20 11:12:24;;;;;;;15.40;12.70;;;;;;;;;;5055697;28;20513;-76
2022/11/20 11:14:53;;;;;;;15.60;11.55;;;;;;;;;;5038541;28;20177;-80
2022/11/20 11:17:32;;;;;;;14.70;11.35;;;;;;;;;;5039317;28;20539;-80
2022/11/20 11:19:59;;;;;;;16.75;12.02;;;;;;;;;;5055748;28;20119;-80
2022/11/20 11:22:24;;;;;;;17.45;12.13;;;;;;;;;;5054892;28;20058;-80
2022/11/20 11:24:53;;;;;;;18.08;10.85;;;;;;;;;;5054916;28;20413;-80
2022/11/20 11:27:18;;;;;;;15.13;11.82;;;;;;;;;;5038619;28;20097;-79
2022/11/20 11:29:44;;;;;;;13.35;11.48;;;;;;;;;;5071927;28;20489;-80
2022/11/20 11:32:20;;;;;;;12.88;10.18;;;;;;;;;;5058579;28;20424;-79
2022/11/20 11:35:01;;;;;;;13.20;9.65;;;;;;;;;;5091993;28;20040;-78
2022/11/20 11:37:26;;;;;;;13.60;10.73;;;;;;;;;;5059046;28;20038;-79
2022/11/20 11:39:52;;;;;;;14.05;10.95;;;;;;;;;;5057998;28;20515;-79
2022/11/20 11:42:18;;;;;;;13.57;9.98;;;;;;;;;;5091980;28;20081;-78
2022/11/20 11:47:43;;;;;;;13.75;10.48;;;;;;;;;;5043609;28;20187;-79
2022/11/20 11:50:08;;;;;;;11.77;8.88;;;;;;;;;;5071490;28;20040;-78
2022/11/20 11:52:57;;;;;;;12.38;9.63;;;;;;;;;;5055121;28;20047;-77
2022/11/20 11:55:33;;;;;;;15.32;10.23;;;;;;;;;;5039503;28;20028;-78
2022/11/20 11:58:06;;;;;;;12.00;9.43;;;;;;;;;;5055166;28;20044;-78
2022/11/20 12:00:33;;;;;;;17.10;9.88;;;;;;;;;;5038331;28;20036;-79
2022/11/20 12:03:37;;;;;;;13.10;9.15;;;;;;;;;;5054620;28;20039;-78
2022/11/20 12:06:14;;;;;;;13.48;8.82;;;;;;;;;;4977714;28;20507;-78
2022/11/20 12:08:53;;;;;;;12.38;8.10;;;;;;;;;;4962647;28;20034;-77
2022/11/20 12:11:35;;;;;;;12.63;9.65;;;;;;;;;;5015575;28;20044;-77
2022/11/20 12:14:26;;;;;;;11.27;7.72;;;;;;;;;;5039613;28;20032;-76
2022/11/20 12:16:52;;;;;;;12.13;7.63;;;;;;;;;;5034354;28;20080;-80
2022/11/20 12:19:18;;;;;;;9.52;7.65;;;;;;;;;;5038223;28;20036;-78
2022/11/20 12:21:58;;;;;;;11.50;7.72;;;;;;;;;;5037588;28;20048;-78
2022/11/20 12:24:51;;;;;;;13.43;7.85;;;;;;;;;;5054238;28;20039;-78
2022/11/20 12:27:20;;;;;;;9.48;6.95;;;;;;;;;;5053970;28;20078;-78
2022/11/20 12:29:48;;;;;;;11.52;7.78;;;;;;;;;;5054303;28;20036;-80
2022/11/20 12:32:49;;;;;;;9.40;6.85;;;;;;;;;;5054368;28;20040;-79
2022/11/20 12:35:53;;;;;;;8.73;6.70;;;;;;;;;;5040150;28;20039;-77
2022/11/20 12:38:56;;;;;;;10.77;6.65;;;;;;;;;;5082318;28;20043;-78
2022/11/20 12:47:44;;;;;;;11.40;7.78;;;;;;;;;;5071571;28;20028;-77
2022/11/20 12:50:37;;;;;;;10.57;7.35;;;;;;;;;;5029315;28;20049;-77
2022/11/20 12:53:04;;;;;;;;;;;;;;;;;;5038026;28;20064;-76
2022/11/20 12:55:50;;;;;;;10.18;7.47;;;;;;;;;;5054173;28;19945;-77
2022/11/20 12:58:29;;;;;;;12.00;8.10;;;;;;;;;;5053675;28;20135;-79
2022/11/20 13:01:39;;;;;;;9.75;6.82;;;;;;;;;;5037123;28;20403;-77
2022/11/20 13:04:12;;;;;;;9.13;7.03;;;;;;;;;;5070157;28;20028;-77
2022/11/20 13:06:38;;;;;;;9.23;6.53;;;;;;;;;;5037762;28;20031;-78
2022/11/20 13:09:05;;;;;;;11.18;7.35;;;;;;;;;;5036990;28;20032;-77
2022/11/20 13:11:37;;;;;;;9.77;6.63;;;;;;;;;;5054022;28;20101;-78
2022/11/20 13:14:39;;;;;;;10.63;7.13;;;;;;;;;;5037427;28;20063;-79
2022/11/20 13:17:11;;;;;;;8.65;6.65;;;;;;;;;;5037448;28;20036;-77
2022/11/20 13:19:37;;;;;;;9.90;6.20;;;;;;;;;;5037855;28;20379;-78
2022/11/20 13:22:02;;;;;;;8.93;6.07;;;;;;;;;;5036879;28;20056;-79
2022/11/20 13:24:30;;;;;;;10.82;6.25;;;;;;;;;;5053765;28;20043;-78
2022/11/20 13:27:08;;;;;;;9.57;5.90;;;;;;;;;;5020346;28;20044;-78
2022/11/20 13:29:37;;;;;;;8.65;5.57;;;;;;;;;;5037563;28;20036;-78
2022/11/20 13:32:02;;;;;;;9.27;6.00;;;;;;;;;;5055702;28;20028;-77
2022/11/20 13:34:28;;;;;;;8.45;5.47;;;;;;;;;;5090851;28;20097;-77
2022/11/20 13:36:55;;;;;;;7.85;5.07;;;;;;;;;;5073176;28;20039;-79
2022/11/20 13:39:27;;;;;;;8.73;5.70;;;;;;;;;;5053376;28;20028;-77
2022/11/20 13:41:57;;;;;;;7.55;5.38;;;;;;;;;;5036827;28;20029;-77
2022/11/20 13:44:35;;;;;;;;;;;;;;;;;;5053364;28;20041;-78
2022/11/20 13:47:00;;;;;;;6.57;4.30;;;;;;;;;;5089877;28;19978;-77
2022/11/20 13:49:33;;;;;;;7.25;4.60;;;;;;;;;;5056970;28;20040;-77
2022/11/20 13:52:06;;;;;;;7.10;4.40;;;;;;;;;;5057430;28;20082;-77
2022/11/20 13:54:44;;;;;;;7.75;4.63;;;;;;;;;;5041050;28;20409;-79
2022/11/20 13:57:37;;;;;;;8.18;4.43;;;;;;;;;;5040574;28;20041;-79
2022/11/20 14:00:14;;;;;;;6.90;4.28;;;;;;;;;;5057156;28;20036;-79
2022/11/20 14:02:40;;;;;;;5.35;3.83;;;;;;;;;;5041129;28;20033;-79
2022/11/20 14:05:05;;;;;;;6.88;4.45;;;;;;;;;;5040512;28;20044;-80
2022/11/20 14:07:39;;;;;;;8.15;4.72;;;;;;;;;;5040654;28;20513;-79
2022/11/20 14:10:05;;;;;;;7.03;4.07;;;;;;;;;;5040513;28;20043;-80
2022/11/20 14:12:32;;;;;;;10.15;4.80;;;;;;;;;;5042022;28;20052;-80
2022/11/20 14:14:57;;;;;;;11.02;4.07;;;;;;;;;;5060245;28;20035;-80
2022/11/20 14:17:28;;;;;;;8.00;4.13;;;;;;;;;;5060646;28;20062;-79
2022/11/20 14:19:54;;;;;;;7.18;4.28;;;;;;;;;;5060797;28;20064;-79
2022/11/20 14:22:23;;;;;;;7.88;4.00;;;;;;;;;;5061026;28;20032;-78
2022/11/20 14:24:49;;;;;;;7.20;3.70;;;;;;;;;;5043593;28;20135;-80
2022/11/20 14:27:19;;;;;;;11.65;5.60;;;;;;;;;;5043378;28;20409;-79
2022/11/20 14:29:45;;;;;;;8.40;4.63;;;;;;;;;;5043678;28;20120;-77
2022/11/20 14:32:11;;;;;;;16.67;6.43;;;;;;;;;;5043548;28;20028;-78
2022/11/20 14:34:43;;;;;;;11.10;5.25;;;;;;;;;;5043249;28;20165;-79
2022/11/20 14:37:13;;;;;;;14.07;5.43;;;;;;;;;;5044244;28;20040;-79
2022/11/20 14:39:42;;;;;;;17.73;6.95;;;;;;;;;;5076801;28;20071;-78
2022/11/20 14:42:19;;;;;;;14.77;6.03;;;;;;;;;;5059753;28;20051;-78
2022/11/20 14:44:44;;;;;;;14.00;6.70;;;;;;;;;;5072678;28;20082;-77
2022/11/20 14:47:11;;;;;;;10.10;5.55;;;;;;;;;;5039988;28;20036;-77
2022/11/20 14:49:37;;;;;;;13.55;5.30;;;;;;;;;;5039444;28;20055;-78
2022/11/20 14:52:16;;;;;;;14.98;6.28;;;;;;;;;;5039897;28;20028;-77
2022/11/20 14:54:49;;;;;;;11.75;5.68;;;;;;;;;;5040733;28;20094;-79
2022/11/20 14:57:35;;;;;;;11.60;4.80;;;;;;;;;;5038899;28;20506;-78
2022/11/20 15:00:04;;;;;;;15.93;5.43;;;;;;;;;;5056467;28;20040;-79
2022/11/20 15:02:30;;;;;;;11.77;4.68;;;;;;;;;;5056112;28;20074;-78
2022/11/20 15:05:01;;;;;;;10.80;4.32;;;;;;;;;;5039684;28;20032;-79
2022/11/20 15:07:31;;;;;;;10.75;4.15;;;;;;;;;;5056391;28;20486;-79
2022/11/20 15:10:00;;;;;;;10.77;4.55;;;;;;;;;;5039531;28;20170;-79
2022/11/20 15:12:26;;;;;;;7.43;3.72;;;;;;;;;;5039259;28;20024;-80
2022/11/20 15:14:51;;;;;;;12.75;4.70;;;;;;;;;;5039427;28;20474;-80
2022/11/20 15:17:17;;;;;;;14.25;4.90;;;;;;;;;;5055893;28;20029;-79